createdAt,value
2024-02-20T00:00:40.031Z,7.40
2024-02-20T00:03:08.228Z,7.13
2024-02-20T00:05:36.467Z,6.87
2024-02-20T00:08:07.294Z,7.10
2024-02-20T00:10:35.685Z,7.60
2024-02-20T00:13:04.194Z,8.90
2024-02-20T00:15:33.024Z,6.77
2024-02-20T00:18:01.378Z,6.53
2024-02-20T00:20:32.390Z,6.10
2024-02-20T00:23:00.668Z,6.53
2024-02-20T00:25:30.251Z,8.00
2024-02-20T00:27:58.458Z,7.03
2024-02-20T00:30:26.966Z,6.13
2024-02-20T00:32:55.392Z,5.60
2024-02-20T00:35:23.729Z,6.90
2024-02-20T00:37:52.158Z,5.83
2024-02-20T00:40:20.781Z,9.57
2024-02-20T00:42:50.682Z,8.00
2024-02-20T00:45:19.314Z,6.50
2024-02-20T00:47:48.045Z,5.60
2024-02-20T00:50:17.482Z,5.70
2024-02-20T00:52:45.917Z,5.70
2024-02-20T00:55:14.940Z,6.43
2024-02-20T00:57:43.600Z,6.87
2024-02-20T01:00:15.449Z,8.40
2024-02-20T01:02:45.757Z,8.07
2024-02-20T01:05:14.029Z,8.67
2024-02-20T01:07:42.395Z,7.07
2024-02-20T01:10:11.205Z,6.97
2024-02-20T01:12:39.425Z,6.20
2024-02-20T01:15:08.843Z,7.10
2024-02-20T01:17:38.574Z,7.37
2024-02-20T01:20:08.384Z,6.63
2024-02-20T01:22:36.772Z,6.43
2024-02-20T01:25:05.966Z,7.77
2024-02-20T01:27:34.114Z,7.30
2024-02-20T01:30:02.306Z,7.30
2024-02-20T01:32:30.547Z,6.70
2024-02-20T01:35:00.239Z,11.27
2024-02-20T01:37:28.475Z,6.43
2024-02-20T01:39:56.788Z,6.93
2024-02-20T01:42:24.999Z,6.73
2024-02-20T01:44:53.369Z,5.73
2024-02-20T01:47:21.552Z,6.73
2024-02-20T01:49:50.345Z,7.63
2024-02-20T01:52:20.437Z,6.63
2024-02-20T01:54:49.209Z,7.93
2024-02-20T01:57:17.481Z,6.63
2024-02-20T01:59:46.209Z,6.40
2024-02-20T02:02:14.535Z,6.67
2024-02-20T02:04:42.871Z,6.70
2024-02-20T02:07:13.105Z,4.87
2024-02-20T02:09:42.861Z,6.00
2024-02-20T02:12:11.150Z,7.40
2024-02-20T02:14:44.520Z,7.27
2024-02-20T02:17:12.735Z,5.73
2024-02-20T02:19:41.050Z,6.23
2024-02-20T02:22:09.818Z,7.73
2024-02-20T02:24:38.160Z,7.60
2024-02-20T02:27:08.370Z,6.33
2024-02-20T02:29:36.512Z,6.70
2024-02-20T02:32:04.978Z,7.40
2024-02-20T02:34:33.469Z,6.43
2024-02-20T02:37:01.677Z,6.87
2024-02-20T02:39:29.842Z,7.87
2024-02-20T02:41:57.971Z,7.93
2024-02-20T02:44:27.517Z,8.27
2024-02-20T02:46:55.778Z,7.57
2024-02-20T02:49:24.081Z,7.83
2024-02-20T02:51:53.082Z,8.53
2024-02-20T02:54:21.246Z,8.30
2024-02-20T02:56:49.459Z,8.73
2024-02-20T02:59:17.709Z,9.40
2024-02-20T03:01:47.464Z,8.60
2024-02-20T03:04:15.793Z,9.37
2024-02-20T03:06:44.034Z,8.27
2024-02-20T03:09:14.491Z,10.50
2024-02-20T03:11:44.061Z,10.00
2024-02-20T03:14:13.506Z,10.20
2024-02-20T03:16:42.201Z,9.53
2024-02-20T03:19:12.459Z,9.40
2024-02-20T03:21:40.746Z,10.57
2024-02-20T03:24:10.650Z,10.40
2024-02-20T03:26:40.337Z,10.33
2024-02-20T03:29:09.098Z,10.00
2024-02-20T03:31:37.575Z,10.90
2024-02-20T03:34:05.889Z,10.63
2024-02-20T03:36:35.480Z,10.67
2024-02-20T03:39:03.807Z,10.97
2024-02-20T03:41:32.084Z,11.47
2024-02-20T03:44:00.994Z,11.87
2024-02-20T03:46:30.559Z,11.30
2024-02-20T03:48:58.981Z,12.10
2024-02-20T03:51:27.418Z,11.63
2024-02-20T03:53:57.037Z,11.93
2024-02-20T03:56:27.749Z,11.73
2024-02-20T03:58:56.049Z,17.27
2024-02-20T04:01:24.274Z,12.47
2024-02-20T04:03:52.704Z,12.47
2024-02-20T04:06:21.064Z,11.90
2024-02-20T04:08:49.235Z,13.90
2024-02-20T04:11:18.809Z,12.57
2024-02-20T04:13:47.995Z,12.23
2024-02-20T04:16:16.311Z,13.13
2024-02-20T04:18:44.563Z,14.33
2024-02-20T04:21:12.841Z,13.37
2024-02-20T04:23:40.964Z,14.87
2024-02-20T04:26:09.142Z,13.77
2024-02-20T04:28:38.745Z,12.83
2024-02-20T04:31:07.210Z,13.57
2024-02-20T04:33:35.421Z,12.67
2024-02-20T04:36:03.665Z,12.43
2024-02-20T04:38:31.987Z,13.97
2024-02-20T04:41:00.151Z,13.50
2024-02-20T04:43:28.306Z,13.87
2024-02-20T04:45:57.987Z,13.33
2024-02-20T04:48:26.804Z,13.70
2024-02-20T04:50:55.412Z,12.80
2024-02-20T04:53:23.543Z,14.33
2024-02-20T04:55:51.856Z,15.23
2024-02-20T04:58:20.065Z,14.90
2024-02-20T05:00:48.464Z,14.07
2024-02-20T05:03:18.133Z,13.10
2024-02-20T05:05:46.331Z,13.03
2024-02-20T05:08:14.568Z,13.80
2024-02-20T05:10:42.839Z,12.13
2024-02-20T05:13:11.293Z,11.03
2024-02-20T05:15:39.605Z,12.40
2024-02-20T05:18:07.879Z,13.20
2024-02-20T05:20:37.441Z,12.77
2024-02-20T05:23:05.924Z,14.57
2024-02-20T05:25:34.151Z,12.70
2024-02-20T05:28:02.387Z,11.87
2024-02-20T05:30:30.725Z,11.57
2024-02-20T05:32:58.878Z,13.03
2024-02-20T05:35:27.035Z,12.80
2024-02-20T05:37:56.609Z,11.83
2024-02-20T05:40:24.734Z,11.03
2024-02-20T05:42:53.004Z,11.83
2024-02-20T05:45:21.190Z,11.77
2024-02-20T05:47:49.573Z,12.30
2024-02-20T05:50:18.257Z,13.30
2024-02-20T05:52:49.093Z,12.83
2024-02-20T05:55:19.716Z,11.13
2024-02-20T05:57:47.888Z,10.93
2024-02-20T06:00:17.005Z,12.07
2024-02-20T06:02:45.190Z,12.93
2024-02-20T06:05:13.420Z,13.50
2024-02-20T06:07:43.142Z,13.23
2024-02-20T06:10:11.972Z,11.20
2024-02-20T06:12:41.976Z,12.50
2024-02-20T06:15:10.794Z,11.67
2024-02-20T06:17:39.109Z,11.43
2024-02-20T06:20:09.715Z,12.67
2024-02-20T06:22:37.984Z,12.23
2024-02-20T06:25:09.239Z,16.97
2024-02-20T06:27:39.762Z,13.27
2024-02-20T06:30:13.777Z,13.97
2024-02-20T06:32:42.323Z,13.13
2024-02-20T06:35:11.170Z,14.40
2024-02-20T06:37:39.406Z,12.77
2024-02-20T06:40:09.021Z,11.93
2024-02-20T06:42:37.401Z,13.10
2024-02-20T06:45:06.854Z,14.13
2024-02-20T06:47:37.078Z,11.73
2024-02-20T06:50:06.386Z,13.80
2024-02-20T06:52:35.520Z,15.23
2024-02-20T06:55:03.732Z,16.23
2024-02-20T06:57:32.096Z,16.07
2024-02-20T07:00:00.233Z,15.97
2024-02-20T07:02:28.380Z,15.93
2024-02-20T07:04:58.157Z,17.87
2024-02-20T07:07:26.512Z,19.43
2024-02-20T07:09:54.696Z,16.87
2024-02-20T07:12:25.167Z,16.73
2024-02-20T07:14:53.318Z,15.90
2024-02-20T07:17:22.097Z,15.93
2024-02-20T07:19:50.894Z,16.90
2024-02-20T07:22:20.600Z,18.17
2024-02-20T07:24:48.933Z,15.70
2024-02-20T07:27:17.121Z,14.53
2024-02-20T07:29:45.713Z,15.30
2024-02-20T07:32:14.120Z,14.40
2024-02-20T07:34:42.517Z,14.40
2024-02-20T07:37:10.902Z,13.67
2024-02-20T07:39:42.097Z,13.43
2024-02-20T07:42:10.414Z,13.67
2024-02-20T07:44:38.879Z,12.57
2024-02-20T07:47:07.152Z,14.10
2024-02-20T07:49:36.408Z,13.97
2024-02-20T07:52:05.068Z,15.40
2024-02-20T07:54:33.327Z,16.80
2024-02-20T07:57:02.944Z,15.30
2024-02-20T07:59:31.110Z,15.87
2024-02-20T08:02:04.429Z,16.30
2024-02-20T08:04:32.800Z,15.57
2024-02-20T08:07:01.078Z,14.80
2024-02-20T08:09:29.363Z,15.27
2024-02-20T08:11:57.517Z,16.43
2024-02-20T08:14:27.157Z,15.77
2024-02-20T08:16:55.333Z,14.93
2024-02-20T08:19:23.695Z,15.60
2024-02-20T08:21:52.319Z,16.83
2024-02-20T08:24:20.544Z,15.50
2024-02-20T08:26:48.704Z,16.27
2024-02-20T08:29:16.905Z,14.70
2024-02-20T08:31:46.610Z,15.47
2024-02-20T08:34:15.744Z,15.97
2024-02-20T08:36:44.336Z,15.87
2024-02-20T08:39:12.470Z,16.80
2024-02-20T08:41:41.092Z,16.10
2024-02-20T08:44:09.688Z,15.30
2024-02-20T08:46:37.942Z,14.43
2024-02-20T08:49:08.147Z,13.07
2024-02-20T08:51:36.424Z,11.57
2024-02-20T08:54:04.640Z,11.90
2024-02-20T08:56:33.002Z,10.97
2024-02-20T08:59:01.157Z,10.13
2024-02-20T09:01:29.564Z,10.50
2024-02-20T09:03:57.929Z,9.63
2024-02-20T09:06:27.565Z,10.50
2024-02-20T09:08:56.500Z,9.33
2024-02-20T09:11:24.712Z,8.77
2024-02-20T09:13:52.907Z,10.23
2024-02-20T09:16:21.389Z,9.67
2024-02-20T09:18:49.516Z,9.80
2024-02-20T09:21:18.253Z,9.50
2024-02-20T09:23:47.820Z,9.60
2024-02-20T09:26:16.194Z,8.60
2024-02-20T09:28:44.409Z,9.43
2024-02-20T09:31:12.778Z,9.33
2024-02-20T09:33:41.087Z,8.80
2024-02-20T09:36:10.751Z,8.00
2024-02-20T09:38:39.468Z,8.20
2024-02-20T09:41:09.822Z,6.07
2024-02-20T09:43:38.421Z,6.20
2024-02-20T09:46:09.645Z,5.30
2024-02-20T09:48:39.191Z,5.67
2024-02-20T09:51:08.688Z,5.87
2024-02-20T09:53:40.731Z,5.43
2024-02-20T09:56:13.766Z,5.07
2024-02-20T09:58:42.012Z,4.67
2024-02-20T10:01:11.392Z,4.73
2024-02-20T10:03:42.617Z,4.80
2024-02-20T10:06:11.274Z,4.10
2024-02-20T10:08:39.452Z,4.17
2024-02-20T10:11:11.914Z,3.57
2024-02-20T10:13:46.784Z,3.30
2024-02-20T10:16:17.318Z,3.30
2024-02-20T10:18:46.262Z,3.93
2024-02-20T10:21:15.884Z,3.40
2024-02-20T10:23:44.057Z,3.63
2024-02-20T10:26:13.576Z,3.20
2024-02-20T10:28:43.723Z,3.30
2024-02-20T10:31:11.973Z,3.63
2024-02-20T10:33:40.513Z,3.60
2024-02-20T10:36:10.574Z,3.10
2024-02-20T10:38:42.263Z,3.63
2024-02-20T10:41:16.727Z,3.60
2024-02-20T10:43:49.209Z,3.83
2024-02-20T10:46:17.721Z,3.77
2024-02-20T10:48:48.399Z,3.70
2024-02-20T10:51:16.904Z,4.30
2024-02-20T10:53:45.688Z,3.30
2024-02-20T10:56:16.018Z,4.60
2024-02-20T10:58:46.700Z,4.20
2024-02-20T11:01:15.852Z,4.40
2024-02-20T11:03:50.642Z,5.40
2024-02-20T11:06:28.613Z,5.10
2024-02-20T11:09:07.698Z,4.73
2024-02-20T11:11:38.249Z,5.47
2024-02-20T11:14:07.774Z,4.87
2024-02-20T11:16:37.489Z,5.50
2024-02-20T11:19:06.689Z,5.87
2024-02-20T11:21:35.993Z,6.30
2024-02-20T11:24:17.762Z,5.53
2024-02-20T11:26:48.701Z,5.43
2024-02-20T11:29:27.589Z,4.30
2024-02-20T11:31:55.815Z,4.00
2024-02-20T11:34:29.029Z,4.00
2024-02-20T11:36:57.324Z,4.30
2024-02-20T11:39:27.227Z,3.60
2024-02-20T11:42:00.232Z,3.60
2024-02-20T11:44:28.413Z,3.30
2024-02-20T11:46:59.282Z,3.40
2024-02-20T11:49:32.471Z,3.43
2024-02-20T11:52:06.042Z,2.80
2024-02-20T11:54:34.222Z,3.00
2024-02-20T11:57:05.662Z,3.30
2024-02-20T11:59:33.980Z,3.50
2024-02-20T12:02:02.564Z,2.97
2024-02-20T12:04:31.054Z,3.73
2024-02-20T12:07:10.672Z,3.20
2024-02-20T12:09:39.277Z,2.83
2024-02-20T12:12:09.193Z,3.10
2024-02-20T12:14:37.330Z,3.37
2024-02-20T12:17:07.282Z,3.43
2024-02-20T12:19:37.570Z,3.43
2024-02-20T12:22:06.080Z,2.83
2024-02-20T12:24:34.255Z,2.63
2024-02-20T12:27:02.460Z,2.50
2024-02-20T12:29:31.987Z,2.80
2024-02-20T12:32:00.399Z,3.03
2024-02-20T12:34:34.651Z,2.80
2024-02-20T12:37:10.055Z,3.37
2024-02-20T12:39:38.272Z,2.87
2024-02-20T12:42:07.058Z,2.90
2024-02-20T12:44:38.391Z,2.63
2024-02-20T12:47:07.248Z,3.03
2024-02-20T12:49:35.522Z,2.50
2024-02-20T12:52:03.822Z,2.70
2024-02-20T12:54:31.957Z,2.70
2024-02-20T12:57:00.535Z,2.50
2024-02-20T12:59:30.053Z,2.40
2024-02-20T13:01:59.694Z,2.50
2024-02-20T13:04:28.889Z,2.30
2024-02-20T13:06:58.995Z,2.07
2024-02-20T13:09:27.201Z,2.43
2024-02-20T13:12:00.959Z,2.70
2024-02-20T13:14:30.336Z,2.17
2024-02-20T13:16:59.899Z,2.67
2024-02-20T13:19:28.209Z,2.60
2024-02-20T13:21:56.426Z,2.87
2024-02-20T13:24:24.580Z,2.77
2024-02-20T13:26:54.924Z,3.13
2024-02-20T13:29:23.168Z,2.63
2024-02-20T13:31:51.383Z,2.93
2024-02-20T13:34:21.201Z,3.00
2024-02-20T13:36:49.456Z,2.67
2024-02-20T13:39:17.570Z,2.50
2024-02-20T13:41:45.894Z,2.63
2024-02-20T13:44:14.981Z,3.00
2024-02-20T13:46:43.306Z,2.37
2024-02-20T13:49:22.900Z,2.43
2024-02-20T13:51:52.775Z,2.77
2024-02-20T13:54:21.543Z,2.27
2024-02-20T13:56:49.763Z,2.40
2024-02-20T13:59:17.928Z,2.80
2024-02-20T14:01:46.111Z,2.60
2024-02-20T14:04:14.490Z,2.53
2024-02-20T14:06:42.731Z,2.77
2024-02-20T14:09:12.969Z,2.70
2024-02-20T14:11:41.598Z,2.53
2024-02-20T14:14:09.802Z,2.20
2024-02-20T14:16:40.292Z,2.30
2024-02-20T14:19:08.894Z,2.20
2024-02-20T14:21:37.126Z,2.80
2024-02-20T14:24:05.804Z,2.60
2024-02-20T14:26:35.448Z,2.93
2024-02-20T14:29:04.450Z,3.33
2024-02-20T14:31:32.719Z,3.43
2024-02-20T14:34:01.143Z,3.57
2024-02-20T14:36:29.425Z,3.40
2024-02-20T14:38:57.759Z,3.07
2024-02-20T14:41:25.901Z,3.30
2024-02-20T14:43:55.484Z,2.73
2024-02-20T14:46:23.919Z,2.23
2024-02-20T14:48:52.088Z,2.93
2024-02-20T14:51:22.165Z,2.30
2024-02-20T14:53:50.993Z,2.50
2024-02-20T14:56:19.203Z,2.27
2024-02-20T14:58:47.429Z,2.50
2024-02-20T15:01:23.355Z,2.40
2024-02-20T15:03:51.755Z,2.20
2024-02-20T15:06:20.380Z,2.03
2024-02-20T15:08:48.693Z,2.40
2024-02-20T15:11:18.279Z,2.00
2024-02-20T15:13:46.610Z,2.33
2024-02-20T15:16:16.803Z,1.83
2024-02-20T15:18:45.029Z,2.10
2024-02-20T15:21:13.286Z,2.23
2024-02-20T15:23:41.694Z,2.40
2024-02-20T15:26:09.969Z,1.83
2024-02-20T15:28:39.477Z,1.87
2024-02-20T15:31:08.006Z,1.70
2024-02-20T15:33:37.933Z,1.90
2024-02-20T15:36:07.113Z,1.53
2024-02-20T15:38:36.542Z,1.67
2024-02-20T15:41:05.480Z,2.13
2024-02-20T15:43:34.400Z,1.90
2024-02-20T15:46:02.895Z,2.10
2024-02-20T15:48:32.111Z,1.70
2024-02-20T15:51:01.705Z,1.70
2024-02-20T15:53:30.128Z,1.80
2024-02-20T15:55:58.426Z,1.80
2024-02-20T15:58:26.731Z,1.80
2024-02-20T16:00:54.968Z,1.70
2024-02-20T16:03:24.115Z,1.40
2024-02-20T16:05:53.276Z,1.80
2024-02-20T16:08:22.827Z,1.90
2024-02-20T16:11:00.461Z,1.60
2024-02-20T16:13:29.149Z,1.83
2024-02-20T16:15:57.339Z,2.00
2024-02-20T16:18:26.921Z,2.47
2024-02-20T16:20:57.265Z,2.20
2024-02-20T16:23:27.416Z,2.80
2024-02-20T16:25:55.790Z,2.53
2024-02-20T16:28:24.500Z,2.20
2024-02-20T16:30:52.764Z,2.73
2024-02-20T16:33:21.107Z,2.83
2024-02-20T16:35:49.587Z,2.70
2024-02-20T16:38:21.051Z,2.67
2024-02-20T16:40:50.739Z,3.33
2024-02-20T16:43:19.899Z,2.90
2024-02-20T16:45:48.740Z,3.13
2024-02-20T16:48:17.324Z,2.97
2024-02-20T16:50:45.736Z,3.30
2024-02-20T16:53:14.314Z,2.70
2024-02-20T16:55:42.879Z,2.80
2024-02-20T16:58:12.534Z,1.70
2024-02-20T17:00:40.808Z,3.13
2024-02-20T17:03:10.129Z,2.97
2024-02-20T17:05:38.597Z,3.07
2024-02-20T17:08:07.454Z,3.43
2024-02-20T17:10:37.956Z,3.23
2024-02-20T17:13:06.319Z,3.27
2024-02-20T17:15:35.912Z,3.43
2024-02-20T17:18:04.214Z,4.67
2024-02-20T17:20:32.395Z,3.40
2024-02-20T17:23:00.630Z,3.53
2024-02-20T17:25:29.148Z,3.63
2024-02-20T17:27:57.331Z,4.20
2024-02-20T17:30:25.454Z,4.47
2024-02-20T17:32:57.269Z,3.83
2024-02-20T17:35:26.872Z,5.10
2024-02-20T17:37:55.491Z,4.23
2024-02-20T17:40:23.806Z,4.97
2024-02-20T17:42:52.005Z,5.60
2024-02-20T17:45:26.334Z,5.40
2024-02-20T17:47:57.759Z,3.00
2024-02-20T17:50:26.333Z,6.10
2024-02-20T17:52:54.669Z,5.33
2024-02-20T17:55:24.986Z,5.63
2024-02-20T17:57:53.935Z,4.90
2024-02-20T18:00:22.614Z,4.60
2024-02-20T18:02:50.799Z,5.47
2024-02-20T18:05:20.322Z,4.80
2024-02-20T18:07:48.680Z,5.60
2024-02-20T18:10:17.227Z,5.37
2024-02-20T18:12:45.471Z,6.43
2024-02-20T18:15:13.758Z,5.73
2024-02-20T18:17:43.101Z,5.63
2024-02-20T18:20:12.761Z,5.77
2024-02-20T18:22:42.442Z,6.23
2024-02-20T18:25:11.956Z,4.87
2024-02-20T18:27:40.181Z,4.43
2024-02-20T18:30:10.777Z,3.47
2024-02-20T18:32:39.234Z,3.17
2024-02-20T18:35:08.492Z,2.73
2024-02-20T18:37:36.942Z,2.40
2024-02-20T18:40:08.983Z,3.27
2024-02-20T18:42:37.308Z,3.00
2024-02-20T18:45:06.810Z,3.13
2024-02-20T18:47:35.051Z,2.47
2024-02-20T18:50:03.379Z,2.10
2024-02-20T18:52:37.618Z,2.07
2024-02-20T18:55:09.484Z,2.10
2024-02-20T18:57:37.731Z,2.00
2024-02-20T19:00:07.372Z,1.57
2024-02-20T19:02:36.055Z,1.90
2024-02-20T19:05:04.827Z,1.50
2024-02-20T19:07:35.147Z,2.13
2024-02-20T19:10:04.563Z,1.67
2024-02-20T19:12:34.235Z,1.47
2024-02-20T19:15:02.518Z,1.33
2024-02-20T19:19:58.998Z,1.60
2024-02-20T19:22:29.336Z,1.27
2024-02-20T19:24:58.094Z,1.30
2024-02-20T19:27:26.481Z,1.00
2024-02-20T19:29:57.810Z,1.23
2024-02-20T19:32:26.548Z,1.10
2024-02-20T19:34:54.839Z,1.40
2024-02-20T19:37:24.409Z,1.60
2024-02-20T19:39:52.600Z,1.27
2024-02-20T19:42:20.793Z,1.00
2024-02-20T19:44:48.928Z,1.00
2024-02-20T19:47:18.546Z,1.13
2024-02-20T19:49:47.574Z,1.47
2024-02-20T19:52:17.315Z,1.10
2024-02-20T19:54:46.026Z,1.00
2024-02-20T19:57:15.886Z,1.10
2024-02-20T19:59:44.415Z,1.27
2024-02-20T20:02:12.620Z,1.30
2024-02-20T20:04:42.296Z,1.40
2024-02-20T20:07:10.669Z,1.30
2024-02-20T20:09:41.439Z,1.53
2024-02-20T20:12:12.180Z,1.13
2024-02-20T20:14:40.375Z,1.60
2024-02-20T20:17:08.509Z,1.43
2024-02-20T20:19:37.268Z,1.27
2024-02-20T20:22:09.380Z,1.40
2024-02-20T20:24:37.579Z,1.50
2024-02-20T20:27:06.106Z,1.20
2024-02-20T20:29:35.149Z,1.40
2024-02-20T20:32:03.365Z,1.30
2024-02-20T20:34:31.858Z,1.40
2024-02-20T20:37:00.059Z,1.43
2024-02-20T20:39:29.645Z,1.23
2024-02-20T20:41:58.105Z,1.90
2024-02-20T20:44:27.127Z,1.50
2024-02-20T20:46:55.587Z,1.70
2024-02-20T20:49:23.852Z,1.80
2024-02-20T20:51:52.039Z,1.50
2024-02-20T20:54:20.404Z,1.50
2024-02-20T20:56:50.053Z,2.00
2024-02-20T20:59:18.216Z,1.90
2024-02-20T21:01:49.760Z,2.10
2024-02-20T21:04:18.107Z,1.80
2024-02-20T21:06:46.352Z,1.03
2024-02-20T21:09:16.417Z,1.33
2024-02-20T21:11:44.808Z,1.50
2024-02-20T21:14:14.360Z,1.60
2024-02-20T21:16:42.530Z,1.70
2024-02-20T21:19:11.169Z,1.47
2024-02-20T21:21:42.171Z,2.13
2024-02-20T21:24:11.817Z,2.27
2024-02-20T21:26:40.919Z,2.80
2024-02-20T21:29:12.137Z,1.77
2024-02-20T21:31:42.106Z,2.80
2024-02-20T21:34:11.889Z,2.27
2024-02-20T21:36:40.358Z,3.17
2024-02-20T21:39:08.526Z,2.57
2024-02-20T21:41:40.117Z,2.80
2024-02-20T21:44:08.783Z,3.07
2024-02-20T21:46:36.964Z,2.97
2024-02-20T21:49:06.726Z,3.60
2024-02-20T21:51:35.055Z,3.07
2024-02-20T21:54:10.616Z,3.03
2024-02-20T21:56:38.781Z,3.57
2024-02-20T21:59:07.411Z,3.23
2024-02-20T22:01:35.647Z,3.53
2024-02-20T22:04:04.407Z,4.17
2024-02-20T22:06:34.047Z,4.30
2024-02-20T22:09:02.264Z,3.37
2024-02-20T22:11:30.820Z,3.60
2024-02-20T22:13:59.188Z,3.30
2024-02-20T22:16:27.461Z,3.73
2024-02-20T22:18:55.848Z,3.47
2024-02-20T22:21:24.016Z,4.20
2024-02-20T22:23:53.551Z,3.93
2024-02-20T22:26:22.629Z,3.90
2024-02-20T22:28:50.785Z,3.50
2024-02-20T22:31:19.213Z,4.13
2024-02-20T22:33:47.429Z,4.10
2024-02-20T22:36:16.358Z,3.60
2024-02-20T22:38:51.388Z,4.10
2024-02-20T22:41:27.897Z,3.43
2024-02-20T22:44:08.053Z,3.17
2024-02-20T22:46:39.383Z,5.43
2024-02-20T22:49:08.394Z,4.60
2024-02-20T22:51:36.598Z,4.13
2024-02-20T22:54:10.246Z,4.57
2024-02-20T22:56:39.787Z,3.70
2024-02-20T22:59:07.987Z,3.37
2024-02-20T23:01:36.271Z,4.80
2024-02-20T23:04:04.606Z,4.60
2024-02-20T23:06:32.832Z,4.10
2024-02-20T23:09:01.046Z,4.30
2024-02-20T23:11:29.609Z,3.40
2024-02-20T23:13:59.658Z,3.77
2024-02-20T23:16:27.867Z,3.43
2024-02-20T23:18:56.247Z,3.90
2024-02-20T23:21:24.450Z,3.83
2024-02-20T23:23:52.647Z,4.60
2024-02-20T23:26:20.891Z,3.93
2024-02-20T23:28:49.129Z,4.43
2024-02-20T23:31:18.730Z,4.40
2024-02-20T23:33:46.918Z,4.77
2024-02-20T23:36:15.081Z,3.80
2024-02-20T23:38:43.206Z,4.27
2024-02-20T23:41:11.422Z,4.73
2024-02-20T23:43:40.365Z,3.70
2024-02-20T23:46:09.065Z,4.40
2024-02-20T23:48:38.768Z,2.87
2024-02-20T23:51:07.402Z,3.37
2024-02-20T23:53:35.710Z,2.00
2024-02-20T23:56:04.269Z,3.20
2024-02-20T23:58:32.567Z,2.80
